Terminal Aerodrome Forecast
Issued by NWS

Home | Current Version | Previous Version | Text Only | Print | Product List | Glossary On
Versions: 1 2 3 4 5 6 7 8 9 10 11 12 13 14 15 16 17 18 19 20
959
FTUS44 KLUB 251141
TAFCDS
TAF
KCDS 251141Z 2512/2612 VRB05KT P6SM FEW004 SCT020 BKN060
      TEMPO 2512/2516 03010G18KT 6SM BR BKN004 BKN020 BKN060
     FM251600 03018G26KT 5SM BR VCSH SCT020 OVC060
     FM252100 06018G264KT P6SM -SHRA SCT020 OVC060=

USA.gov is the U.S. government's official web portal to all federal, state and local government web resources and services.